createdAt,value
2022-09-28T00:01:23.967Z,4.97
2022-09-28T00:03:54.508Z,5.03
2022-09-28T00:06:26.976Z,4.80
2022-09-28T00:08:54.122Z,4.53
2022-09-28T00:11:28.121Z,4.97
2022-09-28T00:14:03.360Z,4.43
2022-09-28T00:16:34.127Z,4.90
2022-09-28T00:19:03.380Z,4.80
2022-09-28T00:21:32.475Z,5.05
2022-09-28T00:24:13.255Z,5.45
2022-09-28T00:26:43.747Z,4.63
2022-09-28T00:29:17.133Z,4.43
2022-09-28T00:31:44.879Z,5.32
2022-09-28T00:34:12.566Z,5.18
2022-09-28T00:36:43.880Z,5.43
2022-09-28T00:39:12.578Z,5.00
2022-09-28T00:41:40.395Z,5.50
2022-09-28T00:44:22.640Z,5.28
2022-09-28T00:47:09.284Z,5.63
2022-09-28T00:49:50.804Z,4.90
2022-09-28T00:52:28.182Z,5.22
2022-09-28T00:54:58.132Z,5.43
2022-09-28T00:57:26.036Z,5.80
2022-09-28T00:59:53.168Z,6.32
2022-09-28T01:02:21.221Z,5.88
2022-09-28T01:04:49.497Z,5.97
2022-09-28T01:07:18.227Z,5.55
2022-09-28T01:09:46.045Z,6.25
2022-09-28T01:12:13.488Z,5.55
2022-09-28T01:14:41.351Z,6.00
2022-09-28T01:17:16.122Z,5.10
2022-09-28T01:20:05.873Z,5.80
2022-09-28T01:22:58.616Z,6.05
2022-09-28T01:25:57.970Z,5.47
2022-09-28T01:28:29.110Z,6.00
2022-09-28T01:31:04.845Z,5.57
2022-09-28T01:33:40.147Z,5.90
2022-09-28T01:36:13.804Z,6.30
2022-09-28T01:38:49.125Z,6.13
2022-09-28T01:41:17.954Z,6.65
2022-09-28T01:43:56.234Z,6.38
2022-09-28T01:46:32.670Z,7.30
2022-09-28T01:49:13.511Z,6.22
2022-09-28T01:51:44.891Z,6.63
2022-09-28T01:54:25.693Z,6.75
2022-09-28T01:57:00.279Z,6.65
2022-09-28T01:59:37.807Z,6.43
2022-09-28T02:02:13.898Z,6.32
2022-09-28T02:04:47.302Z,7.38
2022-09-28T02:07:23.001Z,6.20
2022-09-28T02:10:02.819Z,6.68
2022-09-28T02:12:44.876Z,6.15
2022-09-28T02:15:45.142Z,6.75
2022-09-28T02:18:13.194Z,6.75
2022-09-28T02:20:44.519Z,6.70
2022-09-28T02:23:12.340Z,6.50
2022-09-28T02:25:52.180Z,6.85
2022-09-28T02:28:20.551Z,6.65
2022-09-28T02:30:47.701Z,6.80
2022-09-28T02:33:38.580Z,6.47
2022-09-28T02:36:06.757Z,7.15
2022-09-28T02:38:38.407Z,6.68
2022-09-28T02:41:09.308Z,7.07
2022-09-28T02:43:52.982Z,7.85
2022-09-28T02:46:29.730Z,7.82
2022-09-28T02:49:21.803Z,7.20
2022-09-28T02:52:19.465Z,8.35
2022-09-28T02:55:10.672Z,8.23
2022-09-28T02:57:41.066Z,8.10
2022-09-28T03:00:15.130Z,8.77
2022-09-28T03:03:15.198Z,8.93
2022-09-28T03:05:57.587Z,8.30
2022-09-28T03:08:28.543Z,8.98
2022-09-28T03:11:01.729Z,9.25
2022-09-28T03:13:30.374Z,9.30
2022-09-28T03:16:14.887Z,9.52
2022-09-28T03:18:44.504Z,9.88
2022-09-28T03:21:12.681Z,9.80
2022-09-28T03:23:40.525Z,10.27
2022-09-28T03:26:16.617Z,10.63
2022-09-28T03:28:43.781Z,10.80
2022-09-28T03:31:16.349Z,11.25
2022-09-28T03:33:43.481Z,11.55
2022-09-28T03:36:10.639Z,11.27
2022-09-28T03:38:38.751Z,10.70
2022-09-28T03:41:08.003Z,11.10
2022-09-28T03:43:37.358Z,11.15
2022-09-28T03:46:05.468Z,11.02
2022-09-28T03:48:39.797Z,11.40
2022-09-28T03:51:10.559Z,11.18
2022-09-28T03:53:39.828Z,11.82
2022-09-28T03:56:12.626Z,11.43
2022-09-28T03:58:40.361Z,11.57
2022-09-28T04:01:16.385Z,12.05
2022-09-28T04:03:46.346Z,11.50
2022-09-28T04:06:14.110Z,10.82
2022-09-28T04:08:41.235Z,11.13
2022-09-28T04:11:09.045Z,10.75
2022-09-28T04:13:37.245Z,10.98
2022-09-28T04:16:09.834Z,11.20
2022-09-28T04:18:45.437Z,10.63
2022-09-28T04:21:36.476Z,10.85
2022-09-28T04:24:10.214Z,10.18
2022-09-28T04:26:39.558Z,10.18
2022-09-28T04:29:18.462Z,10.60
2022-09-28T04:32:01.483Z,10.40
2022-09-28T04:34:41.960Z,9.70
2022-09-28T04:37:11.706Z,9.63
2022-09-28T04:39:42.292Z,8.30
2022-09-28T04:42:14.849Z,9.23
2022-09-28T04:44:49.653Z,8.55
2022-09-28T04:47:18.279Z,8.57
2022-09-28T04:50:04.298Z,9.73
2022-09-28T04:52:36.764Z,9.02
2022-09-28T04:55:05.618Z,9.02
2022-09-28T04:57:36.553Z,10.00
2022-09-28T05:00:04.325Z,10.32
2022-09-28T05:02:35.203Z,9.00
2022-09-28T05:05:07.024Z,10.52
2022-09-28T05:07:46.100Z,10.27
2022-09-28T05:10:13.522Z,10.63
2022-09-28T05:12:41.080Z,10.43
2022-09-28T05:15:09.341Z,10.85
2022-09-28T05:17:38.861Z,10.15
2022-09-28T05:20:32.077Z,9.75
2022-09-28T05:23:02.693Z,9.80
2022-09-28T05:25:35.239Z,9.90
2022-09-28T05:28:09.936Z,11.13
2022-09-28T05:31:08.970Z,11.10
2022-09-28T05:33:56.399Z,11.45
2022-09-28T05:36:26.749Z,13.00
2022-09-28T05:38:54.080Z,11.30
2022-09-28T05:41:21.125Z,12.02
2022-09-28T05:43:48.405Z,11.98
2022-09-28T05:46:15.565Z,11.80
2022-09-28T05:48:42.732Z,11.23
2022-09-28T05:51:10.322Z,10.88
2022-09-28T05:53:38.581Z,11.77
2022-09-28T05:56:06.905Z,10.95
2022-09-28T05:58:36.029Z,11.23
2022-09-28T06:01:03.317Z,10.63
2022-09-28T06:03:30.871Z,11.77
2022-09-28T06:06:02.196Z,12.45
2022-09-28T06:08:33.711Z,12.40
2022-09-28T06:11:14.232Z,12.52
2022-09-28T06:13:41.627Z,12.00
2022-09-28T06:16:15.203Z,12.57
2022-09-28T06:18:42.467Z,11.93
2022-09-28T06:21:13.183Z,12.32
2022-09-28T06:23:48.965Z,12.35
2022-09-28T06:26:17.048Z,12.55
2022-09-28T06:28:45.068Z,11.43
2022-09-28T06:31:13.821Z,12.60
2022-09-28T06:33:46.430Z,12.60
2022-09-28T06:36:13.800Z,12.90
2022-09-28T06:38:45.906Z,12.65
2022-09-28T06:43:43.345Z,12.23
2022-09-28T06:46:14.298Z,12.07
2022-09-28T06:48:50.647Z,12.80
2022-09-28T06:51:53.279Z,13.38
2022-09-28T06:54:27.532Z,12.23
2022-09-28T06:57:13.772Z,15.60
2022-09-28T06:59:42.253Z,13.20
2022-09-28T07:02:14.308Z,13.55
2022-09-28T07:05:00.176Z,16.30
2022-09-28T07:07:56.991Z,15.75
2022-09-28T07:11:01.330Z,16.38
2022-09-28T07:13:51.161Z,15.65
2022-09-28T07:16:26.397Z,17.63
2022-09-28T07:18:55.149Z,14.98
2022-09-28T07:21:29.785Z,15.60
2022-09-28T07:24:00.156Z,14.48
2022-09-28T07:26:45.872Z,15.15
2022-09-28T07:29:29.015Z,14.38
2022-09-28T07:32:02.792Z,15.32
2022-09-28T07:34:58.124Z,14.95
2022-09-28T07:38:06.471Z,14.05
2022-09-28T07:40:53.979Z,14.57
2022-09-28T07:43:22.173Z,15.93
2022-09-28T07:45:54.044Z,15.90
2022-09-28T07:48:22.221Z,15.40
2022-09-28T07:51:17.727Z,15.32
2022-09-28T07:53:54.512Z,16.30
2022-09-28T07:56:40.073Z,15.82
2022-09-28T07:59:27.378Z,17.25
2022-09-28T08:02:13.449Z,15.98
2022-09-28T08:04:41.276Z,16.55
2022-09-28T08:07:10.411Z,16.83
2022-09-28T08:09:38.070Z,16.13
2022-09-28T08:12:25.317Z,16.27
2022-09-28T08:15:10.383Z,16.90
2022-09-28T08:17:49.080Z,16.42
2022-09-28T08:20:37.051Z,16.02
2022-09-28T08:23:05.618Z,16.83
2022-09-28T08:25:34.348Z,17.15
2022-09-28T08:28:03.788Z,18.23
2022-09-28T08:30:33.646Z,18.15
2022-09-28T08:33:26.818Z,17.67
2022-09-28T08:36:12.392Z,18.52
2022-09-28T08:38:57.861Z,17.63
2022-09-28T08:42:04.480Z,17.02
2022-09-28T08:45:00.172Z,16.30
2022-09-28T08:48:07.094Z,16.23
2022-09-28T08:51:19.841Z,14.20
2022-09-28T08:54:13.918Z,15.43
2022-09-28T08:56:54.276Z,15.95
2022-09-28T08:59:26.522Z,14.75
2022-09-28T09:02:03.685Z,15.38
2022-09-28T09:04:33.573Z,14.52
2022-09-28T09:07:34.022Z,13.70
2022-09-28T09:10:49.755Z,14.75
2022-09-28T09:13:46.390Z,14.05
2022-09-28T09:19:42.764Z,12.45
2022-09-28T09:22:40.785Z,11.80
2022-09-28T09:25:38.423Z,11.35
2022-09-28T09:28:39.627Z,11.55
2022-09-28T09:31:24.059Z,12.27
2022-09-28T09:34:12.192Z,11.85
2022-09-28T09:37:09.849Z,11.50
2022-09-28T09:40:04.948Z,11.93
2022-09-28T09:43:27.997Z,11.10
2022-09-28T09:46:31.371Z,11.48
2022-09-28T09:49:28.666Z,11.60
2022-09-28T09:51:59.971Z,11.40
2022-09-28T09:54:34.371Z,11.38
2022-09-28T09:57:32.191Z,10.10
2022-09-28T10:00:05.167Z,10.23
2022-09-28T10:02:43.550Z,10.82
2022-09-28T10:05:29.228Z,10.30
2022-09-28T10:08:08.706Z,10.50
2022-09-28T10:10:44.225Z,10.80
2022-09-28T10:13:13.528Z,11.57
2022-09-28T10:15:42.319Z,11.82
2022-09-28T10:18:16.504Z,12.00
2022-09-28T10:20:45.062Z,11.20
2022-09-28T10:23:30.529Z,10.77
2022-09-28T10:26:03.030Z,10.88
2022-09-28T10:28:39.411Z,10.13
2022-09-28T10:31:42.547Z,12.27
2022-09-28T10:34:28.684Z,10.70
2022-09-28T10:37:01.218Z,10.10
2022-09-28T10:39:39.808Z,11.25
2022-09-28T10:42:10.242Z,11.38
2022-09-28T10:45:01.066Z,10.57
2022-09-28T10:47:47.042Z,10.88
2022-09-28T10:50:27.803Z,11.73
2022-09-28T10:53:21.175Z,10.55
2022-09-28T10:56:22.810Z,10.90
2022-09-28T10:58:58.942Z,10.02
2022-09-28T11:01:40.874Z,9.35
2022-09-28T11:04:21.977Z,9.57
2022-09-28T11:06:50.525Z,8.65
2022-09-28T11:09:42.855Z,7.93
2022-09-28T11:12:15.575Z,8.02
2022-09-28T11:14:44.275Z,8.50
2022-09-28T11:17:38.580Z,6.50
2022-09-28T11:20:27.388Z,7.30
2022-09-28T11:23:18.002Z,6.93
2022-09-28T11:25:57.379Z,7.78
2022-09-28T11:28:33.186Z,6.53
2022-09-28T11:31:07.185Z,5.40
2022-09-28T11:33:47.747Z,5.22
2022-09-28T11:37:17.595Z,4.78
2022-09-28T11:39:52.789Z,5.00
2022-09-28T11:42:38.141Z,5.03
2022-09-28T11:45:43.009Z,4.30
2022-09-28T11:48:17.682Z,5.35
2022-09-28T11:50:58.464Z,5.30
2022-09-28T11:53:38.783Z,5.20
2022-09-28T11:56:21.435Z,4.28
2022-09-28T11:59:21.548Z,5.40
2022-09-28T12:02:03.246Z,4.38
2022-09-28T12:04:46.659Z,4.10
2022-09-28T12:07:18.951Z,3.95
2022-09-28T12:09:54.607Z,4.18
2022-09-28T12:12:53.325Z,3.78
2022-09-28T12:15:25.657Z,4.05
2022-09-28T12:18:06.087Z,3.75
2022-09-28T12:20:39.940Z,3.38
2022-09-28T12:23:22.063Z,4.10
2022-09-28T12:25:59.439Z,4.18
2022-09-28T12:28:49.527Z,4.00
2022-09-28T12:31:26.195Z,4.05
2022-09-28T12:33:53.257Z,3.70
2022-09-28T12:36:30.148Z,4.28
2022-09-28T12:39:35.824Z,4.35
2022-09-28T12:42:30.021Z,4.00
2022-09-28T12:45:17.643Z,4.20
2022-09-28T12:47:54.734Z,3.67
2022-09-28T12:50:52.615Z,4.03
2022-09-28T12:53:30.484Z,3.92
2022-09-28T12:56:06.216Z,3.97
2022-09-28T12:58:53.674Z,4.18
2022-09-28T13:01:39.983Z,4.10
2022-09-28T13:04:44.447Z,5.00
2022-09-28T13:07:22.000Z,4.40
2022-09-28T13:10:04.419Z,4.25
2022-09-28T13:12:50.355Z,3.85
2022-09-28T13:15:43.756Z,3.60
2022-09-28T13:18:13.841Z,3.35
2022-09-28T13:20:58.548Z,3.00
2022-09-28T13:23:31.091Z,3.22
2022-09-28T13:26:14.994Z,3.55
2022-09-28T13:28:45.362Z,2.60
2022-09-28T13:31:17.884Z,2.92
2022-09-28T13:33:46.607Z,3.08
2022-09-28T13:36:26.191Z,2.88
2022-09-28T13:38:54.959Z,3.10
2022-09-28T13:41:50.613Z,3.47
2022-09-28T13:44:30.149Z,3.22
2022-09-28T13:47:23.253Z,3.28
2022-09-28T13:50:05.345Z,3.20
2022-09-28T13:52:58.591Z,3.88
2022-09-28T13:55:32.934Z,3.67
2022-09-28T13:58:17.559Z,2.97
2022-09-28T14:00:51.545Z,3.10
2022-09-28T14:03:25.325Z,3.63
2022-09-28T14:06:05.655Z,2.88
2022-09-28T14:09:05.059Z,2.92
2022-09-28T14:11:34.174Z,3.58
2022-09-28T14:14:05.524Z,3.30
2022-09-28T14:16:34.635Z,2.72
2022-09-28T14:19:24.285Z,3.35
2022-09-28T14:21:58.347Z,3.10
2022-09-28T14:27:19.682Z,2.92
2022-09-28T14:29:49.638Z,2.83
2022-09-28T14:32:17.879Z,2.83
2022-09-28T14:34:48.006Z,2.80
2022-09-28T14:37:47.163Z,2.80
2022-09-28T14:40:48.683Z,3.90
2022-09-28T14:43:44.811Z,2.90
2022-09-28T14:46:12.222Z,3.30
2022-09-28T14:48:52.677Z,3.28
2022-09-28T14:51:39.957Z,2.72
2022-09-28T14:54:10.556Z,2.92
2022-09-28T14:56:51.829Z,3.15
2022-09-28T14:59:24.388Z,3.35
2022-09-28T15:02:01.204Z,3.08
2022-09-28T15:04:30.589Z,3.38
2022-09-28T15:06:58.166Z,2.85
2022-09-28T15:09:35.934Z,2.50
2022-09-28T15:12:32.246Z,2.47
2022-09-28T15:15:02.295Z,3.42
2022-09-28T15:17:38.524Z,3.17
2022-09-28T15:20:25.959Z,3.67
2022-09-28T15:22:57.241Z,3.40
2022-09-28T15:25:26.969Z,3.47
2022-09-28T15:27:57.581Z,3.40
2022-09-28T15:30:25.331Z,3.70
2022-09-28T15:33:16.839Z,3.15
2022-09-28T15:35:49.567Z,3.83
2022-09-28T15:38:19.996Z,3.47
2022-09-28T15:40:47.767Z,4.03
2022-09-28T15:43:33.117Z,4.00
2022-09-28T15:46:18.840Z,3.55
2022-09-28T15:48:59.513Z,3.70
2022-09-28T15:51:28.330Z,3.70
2022-09-28T15:53:56.020Z,3.35
2022-09-28T15:56:23.172Z,3.30
2022-09-28T15:59:15.417Z,3.35
2022-09-28T16:01:43.914Z,3.50
2022-09-28T16:04:55.950Z,3.00
2022-09-28T16:07:43.587Z,3.50
2022-09-28T16:10:13.695Z,3.20
2022-09-28T16:12:54.308Z,2.95
2022-09-28T16:15:25.984Z,3.10
2022-09-28T16:18:04.046Z,4.38
2022-09-28T16:20:36.808Z,4.22
2022-09-28T16:23:16.045Z,3.15
2022-09-28T16:25:54.057Z,3.38
2022-09-28T16:28:34.564Z,2.80
2022-09-28T16:31:31.781Z,3.25
2022-09-28T16:34:19.041Z,3.50
2022-09-28T16:36:50.436Z,3.55
2022-09-28T16:39:19.046Z,3.60
2022-09-28T16:41:55.981Z,3.53
2022-09-28T16:44:29.223Z,3.88
2022-09-28T16:46:58.460Z,4.18
2022-09-28T16:49:26.832Z,4.43
2022-09-28T16:51:54.077Z,4.40
2022-09-28T16:54:42.696Z,4.43
2022-09-28T16:57:12.684Z,4.82
2022-09-28T16:59:39.959Z,8.93
2022-09-28T17:05:13.411Z,5.63
2022-09-28T17:07:40.593Z,5.28
2022-09-28T17:10:16.867Z,5.72
2022-09-28T17:12:44.003Z,5.95
2022-09-28T17:15:11.052Z,5.25
2022-09-28T17:17:41.009Z,5.80
2022-09-28T17:20:20.412Z,6.07
2022-09-28T17:22:47.668Z,6.57
2022-09-28T17:25:14.856Z,6.82
2022-09-28T17:27:45.803Z,7.80
2022-09-28T17:30:14.431Z,7.20
2022-09-28T17:32:45.033Z,7.00
2022-09-28T17:35:25.381Z,8.07
2022-09-28T17:37:53.356Z,8.00
2022-09-28T17:40:29.207Z,8.10
2022-09-28T17:42:57.547Z,7.32
2022-09-28T17:45:28.139Z,8.38
2022-09-28T17:47:55.772Z,8.25
2022-09-28T17:50:29.737Z,9.13
2022-09-28T17:52:58.031Z,8.20
2022-09-28T17:55:32.697Z,9.35
2022-09-28T17:58:01.830Z,7.97
2022-09-28T18:00:29.097Z,9.40
2022-09-28T18:02:58.064Z,9.77
2022-09-28T18:05:27.849Z,9.52
2022-09-28T18:07:58.731Z,9.30
2022-09-28T18:10:27.546Z,9.45
2022-09-28T18:12:54.728Z,9.93
2022-09-28T18:15:21.935Z,9.25
2022-09-28T18:17:49.049Z,10.43
2022-09-28T18:20:16.319Z,10.80
2022-09-28T18:22:43.449Z,10.32
2022-09-28T18:25:11.106Z,10.82
2022-09-28T18:27:38.329Z,10.57
2022-09-28T18:30:06.586Z,10.57
2022-09-28T18:32:36.891Z,11.18
2022-09-28T18:35:05.696Z,14.73
2022-09-28T18:37:40.045Z,12.70
2022-09-28T18:40:08.778Z,11.70
2022-09-28T18:42:36.345Z,10.70
2022-09-28T18:45:05.780Z,11.10
2022-09-28T18:47:33.321Z,11.18
2022-09-28T18:50:04.254Z,11.18
2022-09-28T18:52:31.849Z,12.20
2022-09-28T18:54:59.017Z,12.90
2022-09-28T18:57:29.005Z,12.57
2022-09-28T18:59:56.417Z,13.52
2022-09-28T19:02:26.083Z,13.98
2022-09-28T19:04:53.338Z,14.18
2022-09-28T19:07:21.311Z,14.10
2022-09-28T19:09:48.891Z,14.25
2022-09-28T19:12:16.441Z,14.63
2022-09-28T19:14:46.500Z,14.88
2022-09-28T19:17:13.860Z,15.20
2022-09-28T19:19:45.235Z,15.38
2022-09-28T19:22:12.693Z,14.40
2022-09-28T19:24:39.989Z,14.38
2022-09-28T19:27:07.121Z,13.73
2022-09-28T19:29:34.377Z,15.07
2022-09-28T19:32:01.692Z,14.73
2022-09-28T19:34:30.232Z,13.38
2022-09-28T19:36:57.467Z,18.30
2022-09-28T19:39:24.545Z,16.52
2022-09-28T19:41:52.409Z,14.88
2022-09-28T19:44:25.217Z,16.05
2022-09-28T19:47:07.106Z,13.60
2022-09-28T19:49:36.922Z,13.85
2022-09-28T19:52:16.519Z,14.82
2022-09-28T19:54:56.390Z,14.95
2022-09-28T19:57:30.623Z,15.05
2022-09-28T20:02:33.573Z,14.32
2022-09-28T20:05:00.716Z,15.60
2022-09-28T20:07:27.920Z,15.63
2022-09-28T20:09:55.009Z,15.65
2022-09-28T20:12:22.308Z,16.80
2022-09-28T20:14:49.379Z,18.75
2022-09-28T20:17:16.438Z,18.17
2022-09-28T20:19:43.432Z,17.88
2022-09-28T20:22:12.070Z,19.20
2022-09-28T20:24:39.134Z,18.95
2022-09-28T20:27:06.731Z,20.45
2022-09-28T20:29:34.699Z,19.35
2022-09-28T20:32:03.939Z,18.77
2022-09-28T20:34:31.388Z,19.67
2022-09-28T20:36:58.457Z,18.70
2022-09-28T20:39:25.588Z,18.15
2022-09-28T20:41:53.506Z,18.73
2022-09-28T20:44:20.940Z,18.83
2022-09-28T20:46:51.330Z,19.27
2022-09-28T20:49:18.389Z,18.58
2022-09-28T20:51:45.441Z,17.60
2022-09-28T20:54:12.524Z,18.38
2022-09-28T20:56:39.704Z,18.35
2022-09-28T20:59:08.210Z,17.42
2022-09-28T21:01:35.358Z,18.10
2022-09-28T21:04:04.967Z,16.60
2022-09-28T21:06:35.113Z,16.42
2022-09-28T21:09:02.790Z,16.65
2022-09-28T21:11:30.647Z,17.25
2022-09-28T21:13:59.742Z,17.33
2022-09-28T21:16:29.053Z,17.23
2022-09-28T21:18:56.274Z,17.45
2022-09-28T21:21:27.020Z,17.48
2022-09-28T21:23:55.825Z,16.23
2022-09-28T21:26:25.114Z,16.58
2022-09-28T21:29:00.347Z,17.27
2022-09-28T21:31:30.685Z,15.82
2022-09-28T21:34:01.083Z,16.13
2022-09-28T21:36:28.206Z,16.23
2022-09-28T21:38:55.516Z,16.88
2022-09-28T21:41:23.346Z,16.20
2022-09-28T21:43:50.612Z,16.75
2022-09-28T21:46:18.118Z,15.93
2022-09-28T21:48:45.377Z,15.73
2022-09-28T21:51:15.731Z,16.02
2022-09-28T21:53:42.995Z,16.88
2022-09-28T21:56:12.336Z,15.25
2022-09-28T21:58:40.078Z,15.27
2022-09-28T22:01:15.426Z,15.57
2022-09-28T22:03:44.614Z,14.73
2022-09-28T22:06:12.125Z,15.55
2022-09-28T22:08:40.247Z,15.27
2022-09-28T22:11:09.808Z,15.88
2022-09-28T22:13:41.218Z,15.85
2022-09-28T22:16:09.081Z,14.52
2022-09-28T22:18:36.585Z,14.93
2022-09-28T22:21:13.982Z,14.45
2022-09-28T22:23:41.559Z,14.90
2022-09-28T22:26:18.832Z,14.60
2022-09-28T22:28:56.711Z,15.13
2022-09-28T22:31:27.393Z,14.40
2022-09-28T22:33:55.197Z,14.38
2022-09-28T22:36:22.728Z,14.50
2022-09-28T22:38:50.197Z,13.40
2022-09-28T22:41:20.568Z,15.00
2022-09-28T22:43:49.034Z,14.15
2022-09-28T22:46:19.358Z,12.93
2022-09-28T22:48:52.171Z,13.23
2022-09-28T22:51:20.350Z,14.38
2022-09-28T22:53:50.785Z,13.35
2022-09-28T22:56:19.200Z,13.35
2022-09-28T22:58:46.748Z,14.07
2022-09-28T23:01:24.787Z,12.65
2022-09-28T23:03:56.309Z,12.48
2022-09-28T23:06:26.119Z,13.40
2022-09-28T23:08:53.434Z,13.02
2022-09-28T23:11:21.080Z,13.90
2022-09-28T23:13:52.890Z,13.18
2022-09-28T23:16:20.632Z,13.25
2022-09-28T23:18:49.176Z,12.15
2022-09-28T23:21:19.036Z,13.52
2022-09-28T23:23:50.459Z,13.88
2022-09-28T23:26:20.866Z,13.35
2022-09-28T23:28:48.227Z,13.32
2022-09-28T23:31:18.410Z,13.60
2022-09-28T23:33:45.849Z,13.02
2022-09-28T23:36:15.557Z,12.60
2022-09-28T23:38:42.920Z,13.38
2022-09-28T23:41:10.381Z,13.35
2022-09-28T23:43:37.446Z,12.40
2022-09-28T23:46:07.178Z,13.55
2022-09-28T23:48:34.400Z,13.40
2022-09-28T23:51:02.120Z,12.25
2022-09-28T23:53:29.759Z,12.98
2022-09-28T23:55:56.811Z,13.35
2022-09-28T23:58:24.464Z,12.52
